Fort Snelling, Minnesota
Current Conditions -  °F | °C
As of 3:53 AM on Thursday 23 Oct 2014 (Local Time) from KMSP Reporting Station
Haze Haze  
Wind Chill: 50°   Ceiling: 1500
Heat Index: 50°   Visibility: 6mi
Dew Point: 49°   Wind: 7mph
Humidity: 96%   Direction: 140°SE
Pressure: 30"   Gusts: NA
Location:  44.8695°N, 93.2126°W
Report Text: KMSP 230853Z 14006KT 6SM BR OVC015 10/09 A3000 RMK AO2 RAE47 SLP161 P0011 60014 T01000094 58005
Loading
Personal Weather Stations






























Interactive Weather Map
Tropical Storm Tracking
New forecast layout! Learn more

10-Day Weather Forecast

Advertisements
Track Severe Weather on mobile